createdAt,value
2018-08-04T00:00:31.622Z,23.53
2018-08-04T00:01:37.600Z,23.47
2018-08-04T00:02:43.672Z,23.47
2018-08-04T00:03:50.459Z,23.47
2018-08-04T00:04:56.852Z,23.44
2018-08-04T00:06:02.851Z,23.37
2018-08-04T00:07:09.125Z,23.39
2018-08-04T00:08:14.811Z,23.34
2018-08-04T00:09:21.299Z,23.28
2018-08-04T00:10:26.972Z,23.18
2018-08-04T00:11:33.310Z,23.19
2018-08-04T00:12:39.364Z,23.18
2018-08-04T00:13:45.390Z,23.13
2018-08-04T00:14:51.654Z,23.18
2018-08-04T00:15:56.881Z,23.16
2018-08-04T00:17:02.969Z,23.17
2018-08-04T00:18:10.120Z,23.13
2018-08-04T00:19:16.815Z,23.08
2018-08-04T00:20:22.779Z,23.06
2018-08-04T00:21:29.326Z,23.00
2018-08-04T00:22:35.189Z,22.97
2018-08-04T00:23:41.189Z,23.01
2018-08-04T00:24:47.604Z,22.97
2018-08-04T00:25:53.880Z,22.95
2018-08-04T00:26:59.885Z,22.99
2018-08-04T00:28:05.831Z,22.97
2018-08-04T00:29:12.285Z,22.94
2018-08-04T00:30:18.268Z,22.86
2018-08-04T00:31:24.687Z,22.83
2018-08-04T00:32:31.721Z,22.85
2018-08-04T00:33:38.037Z,22.81
2018-08-04T00:34:45.108Z,22.85
2018-08-04T00:35:51.859Z,22.80
2018-08-04T00:36:57.967Z,22.78
2018-08-04T00:38:03.985Z,22.76
2018-08-04T00:39:09.549Z,22.77
2018-08-04T00:40:15.557Z,22.76
2018-08-04T00:41:21.863Z,22.75
2018-08-04T00:42:27.789Z,22.69
2018-08-04T00:43:34.985Z,22.70
2018-08-04T00:44:41.310Z,22.70
2018-08-04T00:45:47.704Z,22.73
2018-08-04T00:46:53.684Z,22.69
2018-08-04T00:48:00.033Z,22.70
2018-08-04T00:49:06.294Z,22.65
2018-08-04T00:50:13.141Z,22.64
2018-08-04T00:51:20.165Z,22.61
2018-08-04T00:52:26.675Z,22.59
2018-08-04T00:53:33.160Z,22.48
2018-08-04T00:54:39.190Z,22.47
2018-08-04T00:55:45.537Z,22.43
2018-08-04T00:56:51.837Z,22.44
2018-08-04T00:57:58.127Z,22.39
2018-08-04T00:59:04.447Z,22.40
2018-08-04T01:00:10.761Z,22.43
2018-08-04T01:01:16.897Z,22.40
2018-08-04T01:02:23.466Z,22.39
2018-08-04T01:03:29.542Z,22.40
2018-08-04T01:04:35.822Z,22.37
2018-08-04T01:05:42.176Z,22.36
2018-08-04T01:06:48.250Z,22.32
2018-08-04T01:07:54.273Z,22.44
2018-08-04T01:09:00.249Z,22.50
2018-08-04T01:10:07.278Z,22.56
2018-08-04T01:11:14.495Z,22.48
2018-08-04T01:12:20.113Z,22.36
2018-08-04T01:13:28.081Z,22.32
2018-08-04T01:14:34.449Z,22.28
2018-08-04T01:15:40.592Z,22.24
2018-08-04T01:16:46.544Z,22.26
2018-08-04T01:17:52.875Z,22.28
2018-08-04T01:18:59.199Z,22.23
2018-08-04T01:20:04.805Z,22.25
2018-08-04T01:21:11.272Z,22.25
2018-08-04T01:22:17.532Z,22.18
2018-08-04T01:23:23.829Z,22.10
2018-08-04T01:24:29.826Z,22.02
2018-08-04T01:25:36.860Z,21.93
2018-08-04T01:26:43.154Z,21.96
2018-08-04T01:27:49.289Z,21.97
2018-08-04T01:28:55.603Z,21.94
2018-08-04T01:30:02.013Z,21.93
2018-08-04T01:31:08.043Z,21.99
2018-08-04T01:32:14.212Z,21.98
2018-08-04T01:33:20.427Z,21.96
2018-08-04T01:34:26.875Z,21.96
2018-08-04T01:35:33.292Z,21.97
2018-08-04T01:36:39.600Z,21.96
2018-08-04T01:37:45.939Z,21.95
2018-08-04T01:38:52.229Z,21.94
2018-08-04T01:39:57.920Z,21.98
2018-08-04T01:41:04.242Z,22.02
2018-08-04T01:42:10.499Z,21.97
2018-08-04T01:43:16.837Z,21.83
2018-08-04T01:44:23.924Z,21.71
2018-08-04T01:45:30.615Z,21.57
2018-08-04T01:46:37.016Z,21.60
2018-08-04T01:47:43.305Z,21.60
2018-08-04T01:48:49.848Z,21.63
2018-08-04T01:49:56.179Z,21.65
2018-08-04T01:51:02.476Z,21.67
2018-08-04T01:52:08.783Z,21.68
2018-08-04T01:53:15.068Z,21.77
2018-08-04T01:54:21.369Z,21.88
2018-08-04T01:55:27.799Z,21.83
2018-08-04T01:56:34.156Z,21.78
2018-08-04T01:57:40.445Z,21.76
2018-08-04T01:58:46.753Z,21.71
2018-08-04T01:59:53.061Z,21.72
2018-08-04T02:00:59.360Z,21.72
2018-08-04T02:02:06.347Z,21.69
2018-08-04T02:03:13.184Z,21.69
2018-08-04T02:04:19.164Z,21.68
2018-08-04T02:05:25.136Z,21.68
2018-08-04T02:06:32.041Z,21.68
2018-08-04T02:07:38.363Z,21.67
2018-08-04T02:08:44.702Z,21.65
2018-08-04T02:09:50.973Z,21.63
2018-08-04T02:10:56.944Z,21.60
2018-08-04T02:12:03.296Z,21.57
2018-08-04T02:13:09.254Z,21.58
2018-08-04T02:14:15.316Z,21.58
2018-08-04T02:15:22.181Z,21.57
2018-08-04T02:16:28.861Z,21.52
2018-08-04T02:17:35.425Z,21.54
2018-08-04T02:18:43.004Z,21.48
2018-08-04T02:19:49.318Z,21.47
2018-08-04T02:20:55.660Z,21.47
2018-08-04T02:22:01.980Z,21.49
2018-08-04T02:23:07.944Z,21.47
2018-08-04T02:24:14.190Z,21.48
2018-08-04T02:25:20.704Z,21.49
2018-08-04T02:26:26.759Z,21.46
2018-08-04T02:27:33.117Z,21.43
2018-08-04T02:28:39.389Z,21.42
2018-08-04T02:29:45.746Z,21.39
2018-08-04T02:30:52.029Z,21.39
2018-08-04T02:31:58.304Z,21.32
2018-08-04T02:33:04.678Z,21.31
2018-08-04T02:34:11.288Z,21.34
2018-08-04T02:35:17.640Z,21.31
2018-08-04T02:36:24.576Z,21.27
2018-08-04T02:37:30.724Z,21.24
2018-08-04T02:38:37.064Z,21.23
2018-08-04T02:39:43.340Z,21.23
2018-08-04T02:40:49.623Z,21.25
2018-08-04T02:41:55.901Z,21.22
2018-08-04T02:43:02.185Z,21.19
2018-08-04T02:44:08.125Z,21.18
2018-08-04T02:45:14.444Z,21.20
2018-08-04T02:46:25.418Z,21.20
2018-08-04T02:47:31.858Z,21.22
2018-08-04T02:48:38.179Z,21.14
2018-08-04T02:49:44.455Z,21.15
2018-08-04T02:50:50.477Z,21.14
2018-08-04T02:51:56.484Z,21.12
2018-08-04T02:53:02.824Z,21.12
2018-08-04T02:54:09.083Z,21.10
2018-08-04T02:55:15.659Z,21.09
2018-08-04T02:56:22.160Z,21.09
2018-08-04T02:57:28.463Z,21.12
2018-08-04T02:58:34.748Z,21.14
2018-08-04T02:59:41.933Z,21.10
2018-08-04T03:00:48.290Z,21.07
2018-08-04T03:01:54.639Z,21.08
2018-08-04T03:03:00.948Z,21.10
2018-08-04T03:04:07.232Z,21.09
2018-08-04T03:05:14.021Z,21.10
2018-08-04T03:06:19.958Z,21.07
2018-08-04T03:07:26.404Z,21.07
2018-08-04T03:08:32.751Z,21.05
2018-08-04T03:09:40.225Z,21.07
2018-08-04T03:10:46.466Z,21.06
2018-08-04T03:11:52.737Z,21.07
2018-08-04T03:12:59.089Z,21.07
2018-08-04T03:14:05.231Z,21.07
2018-08-04T03:15:11.611Z,21.03
2018-08-04T03:16:17.894Z,21.00
2018-08-04T03:17:24.036Z,20.97
2018-08-04T03:18:30.304Z,20.99
2018-08-04T03:19:36.312Z,20.94
2018-08-04T03:20:42.638Z,20.95
2018-08-04T03:21:48.976Z,20.96
2018-08-04T03:22:55.279Z,20.99
2018-08-04T03:24:01.570Z,21.00
2018-08-04T03:25:07.825Z,20.97
2018-08-04T03:26:15.025Z,20.98
2018-08-04T03:27:21.030Z,20.93
2018-08-04T03:28:27.316Z,20.90
2018-08-04T03:29:33.658Z,20.85
2018-08-04T03:30:39.942Z,20.84
2018-08-04T03:31:46.260Z,20.83
2018-08-04T03:32:52.600Z,20.83
2018-08-04T03:33:58.901Z,20.83
2018-08-04T03:35:04.500Z,20.80
2018-08-04T03:36:11.307Z,20.67
2018-08-04T03:37:17.771Z,20.67
2018-08-04T03:38:24.038Z,20.69
2018-08-04T03:39:30.549Z,20.70
2018-08-04T03:40:36.952Z,20.71
2018-08-04T03:41:44.142Z,20.72
2018-08-04T03:42:51.143Z,20.68
2018-08-04T03:43:57.076Z,20.71
2018-08-04T03:45:03.155Z,20.71
2018-08-04T03:46:08.752Z,20.73
2018-08-04T03:47:15.031Z,20.75
2018-08-04T03:48:27.310Z,20.81
2018-08-04T03:49:33.582Z,20.81
2018-08-04T03:50:39.800Z,20.77
2018-08-04T03:51:46.143Z,20.79
2018-08-04T03:52:52.127Z,20.81
2018-08-04T03:53:58.532Z,20.82
2018-08-04T03:55:04.769Z,20.82
2018-08-04T03:56:11.725Z,20.81
2018-08-04T03:57:17.981Z,20.83
2018-08-04T03:58:24.324Z,20.84
2018-08-04T03:59:30.611Z,20.84
2018-08-04T04:00:36.919Z,20.84
2018-08-04T04:01:43.244Z,20.87
2018-08-04T04:02:49.791Z,20.89
2018-08-04T04:03:56.071Z,20.93
2018-08-04T04:05:02.389Z,20.93
2018-08-04T04:06:08.714Z,20.90
2018-08-04T04:07:15.543Z,20.85
2018-08-04T04:08:21.952Z,20.85
2018-08-04T04:09:29.107Z,20.88
2018-08-04T04:10:35.375Z,20.88
2018-08-04T04:11:41.671Z,20.88
2018-08-04T04:12:48.204Z,20.92
2018-08-04T04:13:54.528Z,20.92
2018-08-04T04:15:01.663Z,20.91
2018-08-04T04:16:07.673Z,20.89
2018-08-04T04:17:14.096Z,20.87
2018-08-04T04:18:20.501Z,20.87
2018-08-04T04:19:26.803Z,20.88
2018-08-04T04:20:33.124Z,20.88
2018-08-04T04:21:39.408Z,20.92
2018-08-04T04:22:45.431Z,20.91
2018-08-04T04:23:51.404Z,20.94
2018-08-04T04:24:57.622Z,20.92
2018-08-04T04:26:03.978Z,20.91
2018-08-04T04:27:10.264Z,20.94
2018-08-04T04:28:16.593Z,20.96
2018-08-04T04:29:22.555Z,21.01
2018-08-04T04:30:28.891Z,20.98
2018-08-04T04:31:35.559Z,20.99
2018-08-04T04:32:42.922Z,21.01
2018-08-04T04:33:50.029Z,20.99
2018-08-04T04:34:57.126Z,20.99
2018-08-04T04:36:03.642Z,20.99
2018-08-04T04:37:10.059Z,21.02
2018-08-04T04:38:16.000Z,21.02
2018-08-04T04:39:22.394Z,21.04
2018-08-04T04:40:28.657Z,21.09
2018-08-04T04:41:35.000Z,21.12
2018-08-04T04:42:41.281Z,21.14
2018-08-04T04:43:47.824Z,21.21
2018-08-04T04:44:53.914Z,21.25
2018-08-04T04:46:00.404Z,21.24
2018-08-04T04:47:06.624Z,21.27
2018-08-04T04:48:13.714Z,21.29
2018-08-04T04:49:20.548Z,21.32
2018-08-04T04:50:26.808Z,21.35
2018-08-04T04:51:33.114Z,21.36
2018-08-04T04:52:39.457Z,21.39
2018-08-04T04:53:45.771Z,21.43
2018-08-04T04:54:52.109Z,21.47
2018-08-04T04:55:58.724Z,21.50
2018-08-04T04:57:04.282Z,21.53
2018-08-04T04:58:10.417Z,21.55
2018-08-04T04:59:16.813Z,21.58
2018-08-04T05:00:23.133Z,21.63
2018-08-04T05:01:29.132Z,21.68
2018-08-04T05:02:35.537Z,21.73
2018-08-04T05:03:41.819Z,21.75
2018-08-04T05:04:48.169Z,21.79
2018-08-04T05:05:55.630Z,21.87
2018-08-04T05:07:02.143Z,21.91
2018-08-04T05:08:08.503Z,21.96
2018-08-04T05:09:14.848Z,21.97
2018-08-04T05:10:21.265Z,21.99
2018-08-04T05:11:27.577Z,22.04
2018-08-04T05:12:33.858Z,22.06
2018-08-04T05:13:39.991Z,22.09
2018-08-04T05:14:46.288Z,22.12
2018-08-04T05:15:52.541Z,22.15
2018-08-04T05:16:58.822Z,22.17
2018-08-04T05:18:04.779Z,22.22
2018-08-04T05:19:11.271Z,22.26
2018-08-04T05:20:17.506Z,22.32
2018-08-04T05:21:24.250Z,22.37
2018-08-04T05:22:30.288Z,22.38
2018-08-04T05:23:36.606Z,22.41
2018-08-04T05:24:44.639Z,22.48
2018-08-04T05:25:50.867Z,22.58
2018-08-04T05:26:57.468Z,22.57
2018-08-04T05:28:03.759Z,22.60
2018-08-04T05:29:10.230Z,22.60
2018-08-04T05:30:17.237Z,22.64
2018-08-04T05:31:23.648Z,22.64
2018-08-04T05:32:29.959Z,22.66
2018-08-04T05:33:36.624Z,22.73
2018-08-04T05:34:43.096Z,22.87
2018-08-04T05:35:49.076Z,22.87
2018-08-04T05:36:55.637Z,22.96
2018-08-04T05:38:02.087Z,23.03
2018-08-04T05:39:08.133Z,23.10
2018-08-04T05:40:15.377Z,23.15
2018-08-04T05:41:22.365Z,23.11
2018-08-04T05:42:29.275Z,23.12
2018-08-04T05:43:36.258Z,23.12
2018-08-04T05:44:43.569Z,23.11
2018-08-04T05:45:51.495Z,23.16
2018-08-04T05:46:59.213Z,23.21
2018-08-04T05:48:07.377Z,23.22
2018-08-04T05:49:15.437Z,23.28
2018-08-04T05:50:22.226Z,23.38
2018-08-04T05:51:29.806Z,23.42
2018-08-04T05:52:37.960Z,23.42
2018-08-04T05:53:44.894Z,23.50
2018-08-04T05:54:53.218Z,23.62
2018-08-04T05:56:00.754Z,23.57
2018-08-04T05:57:07.886Z,23.57
2018-08-04T05:58:14.758Z,23.63
2018-08-04T05:59:21.029Z,23.62
2018-08-04T06:00:27.673Z,23.63
2018-08-04T06:01:34.812Z,23.64
2018-08-04T06:02:42.024Z,23.66
2018-08-04T06:03:48.781Z,23.67
2018-08-04T06:04:56.816Z,23.70
2018-08-04T06:06:03.803Z,23.71
2018-08-04T06:07:10.787Z,23.73
2018-08-04T06:08:18.504Z,23.90
2018-08-04T06:09:25.405Z,24.20
2018-08-04T06:10:33.838Z,24.38
2018-08-04T06:11:40.037Z,24.49
2018-08-04T06:12:46.394Z,24.53
2018-08-04T06:13:53.071Z,24.41
2018-08-04T06:15:00.114Z,24.43
2018-08-04T06:16:06.343Z,24.40
2018-08-04T06:17:12.398Z,24.63
2018-08-04T06:18:18.836Z,24.65
2018-08-04T06:19:27.331Z,24.61
2018-08-04T06:20:34.967Z,24.85
2018-08-04T06:21:41.939Z,24.96
2018-08-04T06:22:48.932Z,24.99
2018-08-04T06:23:57.388Z,25.05
2018-08-04T06:25:04.701Z,24.97
2018-08-04T06:26:12.843Z,25.09
2018-08-04T06:27:20.135Z,25.20
2018-08-04T06:28:26.715Z,25.34
2018-08-04T06:29:34.270Z,25.18
2018-08-04T06:30:40.954Z,25.08
2018-08-04T06:31:47.871Z,24.97
2018-08-04T06:32:54.946Z,25.11
2018-08-04T06:34:02.408Z,25.11
2018-08-04T06:35:10.130Z,25.23
2018-08-04T06:36:18.488Z,25.28
2018-08-04T06:37:29.204Z,25.37
2018-08-04T06:38:37.231Z,25.47
2018-08-04T06:39:44.161Z,25.38
2018-08-04T06:40:51.379Z,25.47
2018-08-04T06:41:57.789Z,25.71
2018-08-04T06:43:04.641Z,25.89
2018-08-04T06:44:10.888Z,25.84
2018-08-04T06:45:17.996Z,25.70
2018-08-04T06:46:24.575Z,25.84
2018-08-04T06:47:31.265Z,25.88
2018-08-04T06:48:38.433Z,25.75
2018-08-04T06:49:45.001Z,25.51
2018-08-04T06:50:51.029Z,25.48
2018-08-04T06:51:56.791Z,25.57
2018-08-04T06:53:03.868Z,25.72
2018-08-04T06:54:10.087Z,25.76
2018-08-04T06:55:15.803Z,25.78
2018-08-04T06:56:21.901Z,25.78
2018-08-04T06:57:27.897Z,25.78
2018-08-04T06:58:34.197Z,25.69
2018-08-04T06:59:40.615Z,25.68
2018-08-04T07:00:47.635Z,25.72
2018-08-04T07:01:53.028Z,25.87
2018-08-04T07:02:59.040Z,26.05
2018-08-04T07:04:04.756Z,25.89
2018-08-04T07:05:10.776Z,25.86
2018-08-04T07:06:16.440Z,25.87
2018-08-04T07:07:22.244Z,25.94
2018-08-04T07:08:28.649Z,25.92
2018-08-04T07:09:35.819Z,25.96
2018-08-04T07:10:41.631Z,25.99
2018-08-04T07:11:47.726Z,26.09
2018-08-04T07:12:53.720Z,26.20
2018-08-04T07:13:59.769Z,26.35
2018-08-04T07:15:05.424Z,26.57
2018-08-04T07:16:11.476Z,26.82
2018-08-04T07:17:17.696Z,26.89
2018-08-04T07:18:23.315Z,26.88
2018-08-04T07:19:29.431Z,26.91
2018-08-04T07:20:35.651Z,26.66
2018-08-04T07:21:41.659Z,26.50
2018-08-04T07:22:47.693Z,26.47
2018-08-04T07:23:53.684Z,26.59
2018-08-04T07:24:59.810Z,26.86
2018-08-04T07:26:05.578Z,26.73
2018-08-04T07:27:10.926Z,26.60
2018-08-04T07:28:16.967Z,26.60
2018-08-04T07:29:23.620Z,26.78
2018-08-04T07:30:30.380Z,27.00
2018-08-04T07:31:36.547Z,27.05
2018-08-04T07:32:42.534Z,27.21
2018-08-04T07:33:48.554Z,27.31
2018-08-04T07:34:54.637Z,27.18
2018-08-04T07:36:00.670Z,27.16
2018-08-04T07:37:07.388Z,27.33
2018-08-04T07:38:13.360Z,27.31
2018-08-04T07:39:19.031Z,27.20
2018-08-04T07:40:25.524Z,27.16
2018-08-04T07:41:31.821Z,27.21
2018-08-04T07:42:37.792Z,27.25
2018-08-04T07:43:43.830Z,27.19
2018-08-04T07:44:49.805Z,27.21
2018-08-04T07:45:56.357Z,27.35
2018-08-04T07:47:02.000Z,27.51
2018-08-04T07:48:07.721Z,27.44
2018-08-04T07:49:14.283Z,27.38
2018-08-04T07:50:20.131Z,27.34
2018-08-04T07:51:26.247Z,27.59
2018-08-04T07:52:32.249Z,27.62
2018-08-04T07:53:38.072Z,27.82
2018-08-04T07:54:44.164Z,27.84
2018-08-04T07:55:50.803Z,27.86
2018-08-04T07:56:56.389Z,28.12
2018-08-04T07:58:02.018Z,28.23
2018-08-04T07:59:08.184Z,28.03
2018-08-04T08:00:14.211Z,27.99
2018-08-04T08:01:20.228Z,28.00
2018-08-04T08:02:25.896Z,28.08
2018-08-04T08:03:31.885Z,27.99
2018-08-04T08:04:38.017Z,28.31
2018-08-04T08:05:45.253Z,28.42
2018-08-04T08:06:51.953Z,28.37
2018-08-04T08:07:57.673Z,28.27
2018-08-04T08:09:03.276Z,28.24
2018-08-04T08:10:09.269Z,28.26
2018-08-04T08:11:15.318Z,28.32
2018-08-04T08:12:21.157Z,28.26
2018-08-04T08:13:27.915Z,28.31
2018-08-04T08:14:34.007Z,28.36
2018-08-04T08:15:40.021Z,28.51
2018-08-04T08:16:46.024Z,28.73
2018-08-04T08:17:51.639Z,28.89
2018-08-04T08:18:57.607Z,28.94
2018-08-04T08:20:03.247Z,28.70
2018-08-04T08:21:08.695Z,28.84
2018-08-04T08:22:14.468Z,29.10
2018-08-04T08:23:20.201Z,29.06
2018-08-04T08:24:26.229Z,28.87
2018-08-04T08:25:32.000Z,28.81
2018-08-04T08:26:37.485Z,28.76
2018-08-04T08:27:43.161Z,28.92
2018-08-04T08:28:49.297Z,29.10
2018-08-04T08:29:54.934Z,29.08
2018-08-04T08:31:01.028Z,29.05
2018-08-04T08:32:06.632Z,29.04
2018-08-04T08:33:12.701Z,29.06
2018-08-04T08:34:18.713Z,29.09
2018-08-04T08:35:24.799Z,29.20
2018-08-04T08:36:30.835Z,29.14
2018-08-04T08:37:36.851Z,29.19
2018-08-04T08:38:42.832Z,29.33
2018-08-04T08:39:48.827Z,29.49
2018-08-04T08:40:54.874Z,29.54
2018-08-04T08:42:00.841Z,29.53
2018-08-04T08:43:07.544Z,29.47
2018-08-04T08:44:13.798Z,29.59
2018-08-04T08:45:20.352Z,29.55
2018-08-04T08:46:26.235Z,29.55
2018-08-04T08:47:32.786Z,29.43
2018-08-04T08:48:38.436Z,29.46
2018-08-04T08:49:44.416Z,29.59
2018-08-04T08:50:50.428Z,29.75
2018-08-04T08:51:56.463Z,29.75
2018-08-04T08:53:03.170Z,29.71
2018-08-04T08:54:09.307Z,29.82
2018-08-04T08:55:14.988Z,29.97
2018-08-04T08:56:21.095Z,29.99
2018-08-04T08:57:27.062Z,30.17
2018-08-04T08:58:33.065Z,30.00
2018-08-04T08:59:39.067Z,30.33
2018-08-04T09:00:44.863Z,30.52
2018-08-04T09:01:51.036Z,30.68
2018-08-04T09:02:57.476Z,30.69
2018-08-04T09:04:03.988Z,30.55
2018-08-04T09:05:09.753Z,30.45
2018-08-04T09:06:15.438Z,30.28
2018-08-04T09:07:21.415Z,30.19
2018-08-04T09:08:27.447Z,30.32
2018-08-04T09:09:33.055Z,30.31
2018-08-04T09:10:39.588Z,30.36
2018-08-04T09:11:45.666Z,30.48
2018-08-04T09:12:51.293Z,30.68
2018-08-04T09:13:57.146Z,30.40
2018-08-04T09:15:03.284Z,30.64
2018-08-04T09:16:09.245Z,30.76
2018-08-04T09:17:15.496Z,31.02
2018-08-04T09:18:21.099Z,31.11
2018-08-04T09:19:27.555Z,31.10
2018-08-04T09:20:33.571Z,31.16
2018-08-04T09:21:39.607Z,31.20
2018-08-04T09:22:45.603Z,31.18
2018-08-04T09:23:51.892Z,31.18
2018-08-04T09:24:58.804Z,31.16
2018-08-04T09:26:04.600Z,31.01
2018-08-04T09:27:10.536Z,30.97
2018-08-04T09:28:16.329Z,30.93
2018-08-04T09:29:21.992Z,30.94
2018-08-04T09:30:28.143Z,31.13
2018-08-04T09:31:34.176Z,31.05
2018-08-04T09:32:40.852Z,30.94
2018-08-04T09:33:46.933Z,30.93
2018-08-04T09:34:53.044Z,31.08
2018-08-04T09:35:58.987Z,31.10
2018-08-04T09:37:05.016Z,31.01
2018-08-04T09:38:10.578Z,31.18
2018-08-04T09:39:17.731Z,31.38
2018-08-04T09:40:23.856Z,31.58
2018-08-04T09:41:29.640Z,31.53
2018-08-04T09:42:35.393Z,31.11
2018-08-04T09:43:41.531Z,30.92
2018-08-04T09:44:47.552Z,30.94
2018-08-04T09:45:53.559Z,31.08
2018-08-04T09:46:59.367Z,31.34
2018-08-04T09:48:05.240Z,31.29
2018-08-04T09:49:10.936Z,31.36
2018-08-04T09:50:17.642Z,31.52
2018-08-04T09:51:23.490Z,31.60
2018-08-04T09:52:29.503Z,31.76
2018-08-04T09:53:35.499Z,31.75
2018-08-04T09:54:41.264Z,31.92
2018-08-04T09:55:47.103Z,31.88
2018-08-04T09:56:53.079Z,32.11
2018-08-04T09:57:59.596Z,32.01
2018-08-04T09:59:05.631Z,31.91
2018-08-04T10:00:11.366Z,31.66
2018-08-04T10:01:16.806Z,31.84
2018-08-04T10:02:22.603Z,31.94
2018-08-04T10:03:28.667Z,32.05
2018-08-04T10:04:34.700Z,31.78
2018-08-04T10:05:40.715Z,31.76
2018-08-04T10:06:46.746Z,31.87
2018-08-04T10:07:52.712Z,32.03
2018-08-04T10:08:58.733Z,32.11
2018-08-04T10:10:04.084Z,32.32
2018-08-04T10:11:12.324Z,32.45
2018-08-04T10:12:17.861Z,32.63
2018-08-04T10:13:23.872Z,32.63
2018-08-04T10:14:29.868Z,32.40
2018-08-04T10:15:36.184Z,32.22
2018-08-04T10:16:42.301Z,32.03
2018-08-04T10:17:48.326Z,31.96
2018-08-04T10:18:54.400Z,31.98
2018-08-04T10:20:00.472Z,32.17
2018-08-04T10:21:06.413Z,32.22
2018-08-04T10:22:11.750Z,32.22
2018-08-04T10:23:17.488Z,32.34
2018-08-04T10:24:24.256Z,32.04
2018-08-04T10:25:30.374Z,32.04
2018-08-04T10:26:36.124Z,32.04
2018-08-04T10:27:42.873Z,32.16
2018-08-04T10:28:48.856Z,32.29
2018-08-04T10:29:54.863Z,32.62
2018-08-04T10:31:00.860Z,32.74
2018-08-04T10:32:06.653Z,32.61
2018-08-04T10:33:12.783Z,32.35
2018-08-04T10:34:19.406Z,32.27
2018-08-04T10:35:25.401Z,32.22
2018-08-04T10:36:31.536Z,32.44
2018-08-04T10:37:37.451Z,32.67
2018-08-04T10:38:43.851Z,32.80
2018-08-04T10:39:50.056Z,33.09
2018-08-04T10:40:55.706Z,33.15
2018-08-04T10:42:01.797Z,33.13
2018-08-04T10:43:07.309Z,32.80
2018-08-04T10:44:13.059Z,32.58
2018-08-04T10:45:19.043Z,32.78
2018-08-04T10:46:24.741Z,32.90
2018-08-04T10:47:30.885Z,33.05
2018-08-04T10:48:36.512Z,33.17
2018-08-04T10:49:41.881Z,33.27
2018-08-04T10:50:47.964Z,33.41
2018-08-04T10:51:54.307Z,33.50
2018-08-04T10:53:00.394Z,33.57
2018-08-04T10:54:05.708Z,33.49
2018-08-04T10:55:11.593Z,33.55
2018-08-04T10:56:17.348Z,33.33
2018-08-04T10:57:23.384Z,33.53
2018-08-04T10:58:28.822Z,33.66
2018-08-04T10:59:34.549Z,33.47
2018-08-04T11:00:40.130Z,33.63
2018-08-04T11:01:45.563Z,33.74
2018-08-04T11:02:51.269Z,33.80
2018-08-04T11:03:56.805Z,33.92
2018-08-04T11:05:02.297Z,33.72
2018-08-04T11:06:08.128Z,33.87
2018-08-04T11:07:13.932Z,33.85
2018-08-04T11:08:19.751Z,33.75
2018-08-04T11:09:25.417Z,33.80
2018-08-04T11:10:31.232Z,33.82
2018-08-04T11:11:37.020Z,33.82
2018-08-04T11:12:43.524Z,33.68
2018-08-04T11:13:49.645Z,33.86
2018-08-04T11:14:55.501Z,33.74
2018-08-04T11:16:01.351Z,33.78
2018-08-04T11:17:07.392Z,33.91
2018-08-04T11:18:13.402Z,33.98
2018-08-04T11:19:19.334Z,33.73
2018-08-04T11:20:25.369Z,33.87
2018-08-04T11:21:30.829Z,34.17
2018-08-04T11:22:36.587Z,34.31
2018-08-04T11:23:42.391Z,34.28
2018-08-04T11:24:48.056Z,34.13
2018-08-04T11:25:54.306Z,33.90
2018-08-04T11:27:00.056Z,33.89
2018-08-04T11:28:05.761Z,34.19
2018-08-04T11:29:12.058Z,34.32
2018-08-04T11:30:18.676Z,34.27
2018-08-04T11:31:24.513Z,34.29
2018-08-04T11:32:30.516Z,33.99
2018-08-04T11:33:38.616Z,33.84
2018-08-04T11:34:47.816Z,33.73
2018-08-04T11:35:56.530Z,33.70
2018-08-04T11:37:04.183Z,33.81
2018-08-04T11:38:11.644Z,33.96
2018-08-04T11:39:19.197Z,33.89
2018-08-04T11:40:28.061Z,33.98
2018-08-04T11:41:36.147Z,33.70
2018-08-04T11:42:44.082Z,33.80
2018-08-04T11:43:51.776Z,33.88
2018-08-04T11:45:00.209Z,34.03
2018-08-04T11:46:07.395Z,34.07
2018-08-04T11:47:15.434Z,34.00
2018-08-04T11:48:23.942Z,33.47
2018-08-04T11:49:34.454Z,33.32
2018-08-04T11:50:41.614Z,33.20
2018-08-04T11:51:49.431Z,33.02
2018-08-04T11:52:56.673Z,32.70
2018-08-04T11:54:04.311Z,32.62
2018-08-04T11:55:12.994Z,32.38
2018-08-04T11:56:21.087Z,32.13
2018-08-04T11:57:28.609Z,32.40
2018-08-04T11:58:36.931Z,32.44
2018-08-04T11:59:44.210Z,32.44
2018-08-04T12:00:52.231Z,32.69
2018-08-04T12:01:59.304Z,32.65
2018-08-04T12:03:07.517Z,32.73
2018-08-04T12:04:14.777Z,32.58
2018-08-04T12:05:22.685Z,32.48
2018-08-04T12:06:30.035Z,32.62
2018-08-04T12:07:37.592Z,32.73
2018-08-04T12:08:44.880Z,32.74
2018-08-04T12:09:53.132Z,32.58
2018-08-04T12:11:01.477Z,32.67
2018-08-04T12:12:09.683Z,32.64
2018-08-04T12:13:17.676Z,32.64
2018-08-04T12:14:26.203Z,32.92
2018-08-04T12:15:33.387Z,33.04
2018-08-04T12:16:40.837Z,33.16
2018-08-04T12:17:49.504Z,33.14
2018-08-04T12:18:56.936Z,33.25
2018-08-04T12:20:06.051Z,33.40
2018-08-04T12:21:13.416Z,33.26
2018-08-04T12:22:21.792Z,32.99
2018-08-04T12:23:29.138Z,33.14
2018-08-04T12:24:36.534Z,33.15
2018-08-04T12:25:44.469Z,33.08
2018-08-04T12:26:52.480Z,32.42
2018-08-04T12:28:00.447Z,32.35
2018-08-04T12:29:07.761Z,32.33
2018-08-04T12:30:15.033Z,32.47
2018-08-04T12:31:22.188Z,32.53
2018-08-04T12:32:31.239Z,32.39
2018-08-04T12:33:39.669Z,32.69
2018-08-04T12:34:46.993Z,32.33
2018-08-04T12:35:56.228Z,32.26
2018-08-04T12:37:03.703Z,32.48
2018-08-04T12:38:10.982Z,32.61
2018-08-04T12:39:19.053Z,32.57
2018-08-04T12:40:26.623Z,32.27
2018-08-04T12:41:34.078Z,32.23
2018-08-04T12:42:41.029Z,32.13
2018-08-04T12:43:46.878Z,31.97
2018-08-04T12:44:52.715Z,31.93
2018-08-04T12:45:58.431Z,32.05
2018-08-04T12:47:03.938Z,32.15
2018-08-04T12:48:10.394Z,32.43
2018-08-04T12:49:16.199Z,32.40
2018-08-04T12:50:21.916Z,32.28
2018-08-04T12:51:28.235Z,32.38
2018-08-04T12:52:34.546Z,32.55
2018-08-04T12:53:40.272Z,32.60
2018-08-04T12:54:46.274Z,32.55
2018-08-04T12:55:51.941Z,32.52
2018-08-04T12:56:57.772Z,32.45
2018-08-04T12:58:03.549Z,32.51
2018-08-04T12:59:09.556Z,32.53
2018-08-04T13:00:15.038Z,32.88
2018-08-04T13:01:20.581Z,33.16
2018-08-04T13:02:25.995Z,33.17
2018-08-04T13:03:31.742Z,33.09
2018-08-04T13:04:38.065Z,32.90
2018-08-04T13:05:43.725Z,33.13
2018-08-04T13:06:49.455Z,33.12
2018-08-04T13:07:55.160Z,33.02
2018-08-04T13:09:00.856Z,33.24
2018-08-04T13:10:06.217Z,33.30
2018-08-04T13:11:11.909Z,33.34
2018-08-04T13:12:18.269Z,33.53
2018-08-04T13:13:23.875Z,33.51
2018-08-04T13:14:29.557Z,33.55
2018-08-04T13:15:36.028Z,33.41
2018-08-04T13:16:41.730Z,33.31
2018-08-04T13:17:47.245Z,33.22
2018-08-04T13:18:53.196Z,33.43
2018-08-04T13:19:59.028Z,33.30
2018-08-04T13:21:04.872Z,33.35
2018-08-04T13:22:10.636Z,33.29
2018-08-04T13:23:16.517Z,33.36
2018-08-04T13:24:22.472Z,33.52
2018-08-04T13:25:28.547Z,33.56
2018-08-04T13:26:35.069Z,33.65
2018-08-04T13:27:40.870Z,33.63
2018-08-04T13:28:46.880Z,33.51
2018-08-04T13:29:52.812Z,33.40
2018-08-04T13:30:58.451Z,33.66
2018-08-04T13:32:04.167Z,33.61
2018-08-04T13:33:10.171Z,33.54
2018-08-04T13:34:16.012Z,33.71
2018-08-04T13:35:21.701Z,33.86
2018-08-04T13:36:28.131Z,34.00
2018-08-04T13:37:34.793Z,33.96
2018-08-04T13:38:41.800Z,33.76
2018-08-04T13:39:48.712Z,33.58
2018-08-04T13:40:54.907Z,33.79
2018-08-04T13:42:00.812Z,34.00
2018-08-04T13:43:07.022Z,34.17
2018-08-04T13:44:13.076Z,34.24
2018-08-04T13:45:19.337Z,34.20
2018-08-04T13:46:25.461Z,34.09
2018-08-04T13:47:32.865Z,34.28
2018-08-04T13:48:40.135Z,34.45
2018-08-04T13:49:47.859Z,34.80
2018-08-04T13:50:55.469Z,34.81
2018-08-04T13:52:01.992Z,34.81
2018-08-04T13:53:08.260Z,35.00
2018-08-04T13:54:16.656Z,35.04
2018-08-04T13:55:24.058Z,34.89
2018-08-04T13:56:30.383Z,34.52
2018-08-04T13:57:37.532Z,34.28
2018-08-04T13:58:43.882Z,34.05
2018-08-04T13:59:50.464Z,34.29
2018-08-04T14:00:57.222Z,34.26
2018-08-04T14:02:03.997Z,34.48
2018-08-04T14:03:11.141Z,34.82
2018-08-04T14:04:17.557Z,34.40
2018-08-04T14:05:23.803Z,34.19
2018-08-04T14:06:29.859Z,34.19
2018-08-04T14:07:36.944Z,34.24
2018-08-04T14:08:43.850Z,34.25
2018-08-04T14:09:51.195Z,34.25
2018-08-04T14:10:57.628Z,34.15
2018-08-04T14:12:03.791Z,34.45
2018-08-04T14:13:11.806Z,34.59
2018-08-04T14:14:17.788Z,34.64
2018-08-04T14:15:23.773Z,34.70